Time;durP1;ratioP1;P1;durP2;ratioP2;P2;SDS_P1;SDS_P2;PMS_P1;PMS_P2;Temp;Humidity;BMP_temperature;BMP_pressure;BME280_temperature;BME280_humidity;BME280_pressure;Samples;Min_cycle;Max_cycle;Signal;HPM_P1;HPM_P2
2023/01/06 00:02:08;;;;;;;3.05;2.60;;;8.60;99.90;;;;;;5081118;28;20624;-86
2023/01/06 00:04:35;;;;;;;2.55;2.30;;;8.70;99.90;;;;;;5084277;28;20269;-86
2023/01/06 00:07:03;;;;;;;2.40;2.20;;;8.70;99.90;;;;;;5079325;28;20204;-85
2023/01/06 00:09:30;;;;;;;3.75;2.10;;;8.70;99.90;;;;;;5082639;28;20663;-86
2023/01/06 00:11:57;;;;;;;2.78;1.73;;;8.80;99.90;;;;;;5079357;28;20657;-86
2023/01/06 00:14:24;;;;;;;2.38;2.17;;;8.90;99.90;;;;;;5081525;28;20208;-86
2023/01/06 00:16:51;;;;;;;2.10;1.90;;;8.90;99.90;;;;;;5077806;28;20228;-85
2023/01/06 00:19:18;;;;;;;2.30;2.10;;;8.90;99.90;;;;;;5075837;28;20217;-85
2023/01/06 00:21:45;;;;;;;2.90;1.90;;;8.90;99.90;;;;;;5075621;28;20195;-85
2023/01/06 00:24:13;;;;;;;1.92;1.73;;;8.90;99.90;;;;;;5077534;28;20251;-85
2023/01/06 00:26:40;;;;;;;2.70;2.00;;;8.90;99.90;;;;;;5077725;28;20657;-85
2023/01/06 00:29:09;;;;;;;2.20;2.00;;;8.80;99.90;;;;;;5078364;28;20200;-85
2023/01/06 00:31:37;;;;;;;3.63;2.17;;;8.80;99.90;;;;;;5073378;28;20212;-85
2023/01/06 00:34:04;;;;;;;2.20;2.00;;;8.80;99.90;;;;;;5076930;28;20221;-85
2023/01/06 00:36:31;;;;;;;2.95;1.90;;;8.90;99.90;;;;;;5078618;28;20201;-85
2023/01/06 00:38:58;;;;;;;2.10;1.90;;;9.00;99.90;;;;;;5078977;28;20239;-85
2023/01/06 00:44:08;;;;;;;3.35;2.00;;;8.90;99.90;;;;;;5078552;28;20205;-85
2023/01/06 00:46:35;;;;;;;1.83;1.60;;;8.80;99.90;;;;;;5078414;28;20208;-85
2023/01/06 00:49:03;;;;;;;3.25;1.73;;;8.70;99.90;;;;;;5078344;28;20216;-85
2023/01/06 00:51:31;;;;;;;2.40;1.70;;;8.60;99.90;;;;;;5076215;28;20219;-85
2023/01/06 00:53:59;;;;;;;1.88;1.73;;;8.70;99.90;;;;;;5084193;28;20359;-85
2023/01/06 00:56:28;;;;;;;3.75;1.70;;;8.80;99.90;;;;;;5083763;28;20212;-85
2023/01/06 00:58:55;;;;;;;3.45;1.90;;;8.80;99.90;;;;;;5086120;28;20595;-85
2023/01/06 01:01:21;;;;;;;1.67;1.52;;;8.80;99.90;;;;;;5088177;28;20217;-85
2023/01/06 01:03:48;;;;;;;1.63;1.50;;;8.80;99.90;;;;;;5086148;28;20197;-85
2023/01/06 01:06:16;;;;;;;1.52;1.42;;;8.70;99.90;;;;;;5083713;28;20211;-85
2023/01/06 01:08:43;;;;;;;2.28;1.63;;;8.60;99.90;;;;;;5086775;28;20657;-85
2023/01/06 01:12:08;;;;;;;1.63;1.52;;;8.60;99.90;;;;;;5082755;28;20212;-85
2023/01/06 01:14:01;;;;;;;4.28;1.80;;;8.50;99.90;;;;;;5082883;28;20708;-86
2023/01/06 01:16:28;;;;;;;2.10;1.90;;;8.50;99.90;;;;;;5086117;28;20216;-85
2023/01/06 01:18:55;;;;;;;3.83;2.78;;;8.50;99.90;;;;;;5084071;28;20596;-85
2023/01/06 01:21:22;;;;;;;4.50;2.17;;;8.40;99.90;;;;;;5083123;28;20205;-85
2023/01/06 01:23:49;;;;;;;4.18;2.55;;;8.40;99.90;;;;;;5085723;28;20251;-86
2023/01/06 01:26:15;;;;;;;3.75;3.00;;;8.20;99.90;;;;;;5082963;28;20205;-85
2023/01/06 01:28:42;;;;;;;4.80;3.53;;;8.10;99.90;;;;;;5083391;28;20200;-85
2023/01/06 01:31:11;;;;;;;4.43;3.38;;;8.00;99.90;;;;;;5087285;28;20212;-86
2023/01/06 01:33:38;;;;;;;5.55;3.80;;;7.90;99.90;;;;;;5080688;28;20201;-86
2023/01/06 01:36:06;;;;;;;5.82;4.15;;;7.90;99.90;;;;;;5083841;28;20201;-85
2023/01/06 01:38:34;;;;;;;10.25;6.13;;;7.90;99.90;;;;;;5081378;28;20227;-85
2023/01/06 01:41:01;;;;;;;7.53;5.20;;;7.80;99.90;;;;;;5082812;28;20204;-85
2023/01/06 01:43:43;;;;;;;9.38;5.50;;;7.80;99.90;;;;;;5087424;28;20207;-86
2023/01/06 01:46:13;;;;;;;7.10;4.82;;;7.80;99.90;;;;;;5079713;28;20231;-86
2023/01/06 01:48:40;;;;;;;7.13;4.80;;;7.60;99.90;;;;;;5084179;28;20204;-85
2023/01/06 01:51:11;;;;;;;6.00;4.53;;;7.60;99.90;;;;;;5084360;28;20291;-86
2023/01/06 01:53:42;;;;;;;6.40;4.70;;;7.60;99.90;;;;;;5076251;28;20208;-85
2023/01/06 01:56:13;;;;;;;4.72;3.83;;;7.60;99.90;;;;;;5074655;28;20697;-86
2023/01/06 01:58:44;;;;;;;5.43;3.85;;;7.60;99.90;;;;;;5081679;28;20235;-85
2023/01/06 02:01:13;;;;;;;5.85;4.00;;;7.60;99.90;;;;;;5079443;28;20205;-85
2023/01/06 02:03:42;;;;;;;5.20;3.40;;;7.60;99.90;;;;;;5077834;28;20203;-85
2023/01/06 02:09:34;;;;;;;3.78;2.75;;;7.40;99.90;;;;;;5074183;28;20258;-85
2023/01/06 02:12:02;;;;;;;5.18;2.90;;;7.40;99.90;;;;;;5078109;28;20212;-85
2023/01/06 02:14:29;;;;;;;2.45;2.22;;;7.30;99.90;;;;;;5079704;28;20205;-86
2023/01/06 02:17:17;;;;;;;3.17;2.67;;;7.20;99.90;;;;;;5077481;28;20220;-85
2023/01/06 02:20:15;;;;;;;2.58;2.00;;;7.20;99.90;;;;;;5078063;28;20224;-85
2023/01/06 02:23:22;;;;;;;2.53;1.80;;;7.20;99.90;;;;;;5079870;28;20232;-84
2023/01/06 02:26:17;;;;;;;1.60;1.42;;;7.10;99.90;;;;;;5078049;28;20196;-86
2023/01/06 02:29:14;;;;;;;2.40;1.85;;;7.00;99.90;;;;;;5071175;28;20205;-85
2023/01/06 02:31:58;;;;;;;1.75;1.65;;;7.00;99.90;;;;;;5078914;28;20207;-85
2023/01/06 02:34:40;;;;;;;5.20;2.00;;;6.90;99.90;;;;;;5082715;28;20687;-85
2023/01/06 02:37:16;;;;;;;2.58;1.52;;;7.00;99.90;;;;;;5076502;28;20360;-85
2023/01/06 02:39:53;;;;;;;1.95;1.70;;;6.90;99.90;;;;;;5084060;28;20699;-85
2023/01/06 02:42:29;;;;;;;2.08;1.88;;;6.80;99.90;;;;;;5081083;28;20216;-85
2023/01/06 02:45:07;;;;;;;2.33;1.70;;;6.80;99.90;;;;;;5077643;28;20215;-86
2023/01/06 02:47:47;;;;;;;1.70;1.60;;;6.90;99.90;;;;;;5075488;28;20573;-85
2023/01/06 02:50:22;;;;;;;1.80;1.70;;;6.80;99.90;;;;;;5078165;28;20209;-85
2023/01/06 02:52:58;;;;;;;1.50;1.40;;;6.80;99.90;;;;;;5081691;28;20242;-85
2023/01/06 02:55:32;;;;;;;1.60;1.50;;;6.90;99.90;;;;;;5079845;28;20734;-85
2023/01/06 02:58:05;;;;;;;1.63;1.30;;;6.80;99.90;;;;;;5075444;28;20705;-86
2023/01/06 03:00:35;;;;;;;1.77;1.55;;;6.70;99.90;;;;;;5076202;28;20205;-85
2023/01/06 03:03:05;;;;;;;1.58;1.48;;;6.60;99.90;;;;;;5085311;28;20201;-85
2023/01/06 03:05:37;;;;;;;1.50;1.40;;;6.50;99.90;;;;;;5073715;28;20249;-85
2023/01/06 03:08:08;;;;;;;2.33;1.85;;;6.50;99.90;;;;;;5080718;28;20209;-86
2023/01/06 03:10:36;;;;;;;1.70;1.45;;;6.40;99.90;;;;;;5072838;28;20205;-85
2023/01/06 03:13:09;;;;;;;2.50;1.75;;;6.30;99.90;;;;;;5081271;28;20243;-86
2023/01/06 03:15:36;;;;;;;2.15;1.80;;;6.30;99.90;;;;;;5082226;28;20244;-86
2023/01/06 03:18:04;;;;;;;3.45;2.10;;;6.30;99.90;;;;;;5081559;28;20217;-85
2023/01/06 03:20:32;;;;;;;2.10;1.80;;;6.30;99.90;;;;;;5081625;28;20698;-85
2023/01/06 03:22:58;;;;;;;2.00;1.67;;;6.40;99.90;;;;;;5080725;28;20275;-85
2023/01/06 03:25:26;;;;;;;3.45;1.80;;;6.30;99.90;;;;;;5076919;28;20653;-85
2023/01/06 03:27:53;;;;;;;1.60;1.50;;;6.30;99.90;;;;;;5077335;28;20201;-86
2023/01/06 03:30:20;;;;;;;1.67;1.52;;;6.40;99.90;;;;;;5071997;28;20205;-86
2023/01/06 03:32:56;;;;;;;3.60;1.55;;;6.50;99.90;;;;;;5076016;28;20208;-86
2023/01/06 03:35:44;;;;;;;1.65;1.55;;;6.40;99.90;;;;;;5075523;28;20212;-86
2023/01/06 03:38:19;;;;;;;3.13;1.77;;;6.40;99.90;;;;;;5080762;28;20224;-87
2023/01/06 03:40:54;;;;;;;2.38;1.70;;;6.40;99.90;;;;;;5076285;28;20200;-86
2023/01/06 03:43:26;;;;;;;2.40;1.85;;;6.30;99.90;;;;;;5075148;28;20212;-85
2023/01/06 03:46:08;;;;;;;3.95;1.67;;;6.30;99.90;;;;;;5072413;28;20564;-85
2023/01/06 03:48:45;;;;;;;2.00;1.90;;;6.30;99.90;;;;;;5077620;28;20205;-86
2023/01/06 03:51:27;;;;;;;1.60;1.50;;;6.20;99.90;;;;;;5077458;28;20212;-85
2023/01/06 03:54:01;;;;;;;1.88;1.65;;;6.20;99.90;;;;;;5078220;28;20284;-85
2023/01/06 03:56:32;;;;;;;1.83;1.60;;;6.10;99.90;;;;;;5077559;28;20666;-85
2023/01/06 03:59:03;;;;;;;2.17;1.60;;;6.20;99.90;;;;;;5083657;28;20225;-86
2023/01/06 04:01:31;;;;;;;1.75;1.65;;;6.20;99.90;;;;;;5080099;28;20656;-85
2023/01/06 04:04:01;;;;;;;1.92;1.67;;;6.20;99.90;;;;;;5084104;28;20212;-86
2023/01/06 04:06:29;;;;;;;2.90;1.90;;;6.20;99.90;;;;;;5083143;28;20690;-85
2023/01/06 04:08:56;;;;;;;2.42;2.00;;;6.10;99.90;;;;;;5081143;28;20212;-86
2023/01/06 04:14:07;;;;;;;3.17;1.73;;;5.90;99.90;;;;;;5077506;28;20580;-86
2023/01/06 04:16:34;;;;;;;1.88;1.77;;;5.90;99.90;;;;;;5083462;28;20201;-85
2023/01/06 04:19:01;;;;;;;2.07;1.60;;;6.00;99.90;;;;;;5078801;28;20766;-86
2023/01/06 04:21:30;;;;;;;2.07;1.50;;;6.00;99.90;;;;;;5078764;28;20605;-85
2023/01/06 04:23:56;;;;;;;1.97;1.83;;;6.00;99.90;;;;;;5075524;28;20232;-85
2023/01/06 04:26:23;;;;;;;1.90;1.70;;;5.80;99.90;;;;;;5081925;28;20209;-85
2023/01/06 04:28:50;;;;;;;1.80;1.70;;;5.70;99.90;;;;;;5083546;28;20208;-85
2023/01/06 04:31:17;;;;;;;2.23;1.77;;;5.70;99.90;;;;;;5080081;28;20212;-85
2023/01/06 04:33:44;;;;;;;2.27;1.70;;;5.70;99.90;;;;;;5081966;28;20224;-85
2023/01/06 04:36:11;;;;;;;1.60;1.50;;;5.70;99.90;;;;;;5081297;28;20247;-85
2023/01/06 04:38:40;;;;;;;1.63;1.53;;;5.70;99.90;;;;;;5079256;28;20315;-85
2023/01/06 04:41:06;;;;;;;2.00;1.80;;;5.80;99.90;;;;;;5077424;28;20209;-85
2023/01/06 04:43:33;;;;;;;1.98;1.80;;;5.70;99.90;;;;;;5076818;28;20208;-85
2023/01/06 04:46:00;;;;;;;1.80;1.70;;;5.60;99.90;;;;;;5079126;28;20665;-85
2023/01/06 04:48:27;;;;;;;1.70;1.60;;;5.60;99.90;;;;;;5080551;28;20216;-85
2023/01/06 04:51:00;;;;;;;2.10;1.90;;;5.50;99.90;;;;;;5075159;28;20681;-85
2023/01/06 04:53:27;;;;;;;1.93;1.70;;;5.40;99.90;;;;;;5079130;28;20251;-85
2023/01/06 04:55:55;;;;;;;1.73;1.57;;;5.40;99.90;;;;;;5087735;28;20585;-85
2023/01/06 04:58:22;;;;;;;1.70;1.60;;;5.50;99.90;;;;;;5078005;28;20224;-85
2023/01/06 05:00:49;;;;;;;2.40;1.50;;;5.50;99.90;;;;;;5078345;28;20208;-85
2023/01/06 05:03:16;;;;;;;2.50;1.87;;;5.50;99.90;;;;;;5081415;28;20550;-86
2023/01/06 05:05:43;;;;;;;3.67;1.80;;;5.40;99.90;;;;;;5081068;28;20213;-86
2023/01/06 05:08:09;;;;;;;2.20;1.80;;;5.30;99.90;;;;;;5076015;28;20205;-86
2023/01/06 05:10:36;;;;;;;1.70;1.60;;;5.30;99.90;;;;;;5076954;28;20652;-86
2023/01/06 05:13:05;;;;;;;1.73;1.60;;;5.20;99.90;;;;;;5077360;28;20205;-85
2023/01/06 05:15:31;;;;;;;1.70;1.60;;;5.30;99.90;;;;;;5081753;28;20213;-86
2023/01/06 05:17:58;;;;;;;1.50;1.40;;;5.30;99.90;;;;;;5085338;28;20205;-86
2023/01/06 05:20:25;;;;;;;3.17;1.60;;;5.30;99.90;;;;;;5081927;28;20679;-86
2023/01/06 05:22:52;;;;;;;2.43;1.60;;;5.20;99.90;;;;;;5085251;28;20224;-86
2023/01/06 05:25:19;;;;;;;2.03;1.60;;;5.30;99.90;;;;;;5078102;28;20204;-86
2023/01/06 05:27:45;;;;;;;2.80;2.17;;;5.30;99.90;;;;;;5074004;28;20200;-86
2023/01/06 05:30:14;;;;;;;2.27;2.07;;;5.20;99.90;;;;;;5076612;28;20201;-86
2023/01/06 05:32:41;;;;;;;4.10;3.33;;;5.20;99.90;;;;;;5084907;28;20204;-85
2023/01/06 05:35:09;;;;;;;3.00;2.70;;;5.20;99.90;;;;;;5076598;28;20279;-86
2023/01/06 05:37:36;;;;;;;2.50;2.30;;;5.20;99.90;;;;;;5073937;28;20206;-85
2023/01/06 05:40:02;;;;;;;3.40;2.00;;;5.20;99.90;;;;;;5073901;28;20231;-86
2023/01/06 05:42:29;;;;;;;2.30;2.10;;;5.30;99.90;;;;;;5075780;28;20652;-86
2023/01/06 05:44:56;;;;;;;2.27;1.70;;;5.30;99.90;;;;;;5077613;28;20204;-86
2023/01/06 05:47:25;;;;;;;1.63;1.50;;;5.40;99.90;;;;;;5079983;28;20610;-86
2023/01/06 05:49:52;;;;;;;1.93;1.63;;;5.40;99.90;;;;;;5073859;28;20294;-86
2023/01/06 05:52:18;;;;;;;1.70;1.60;;;5.30;99.90;;;;;;5079813;28;20219;-86
2023/01/06 05:54:45;;;;;;;1.40;1.30;;;5.20;99.90;;;;;;5074577;28;20269;-86
2023/01/06 05:57:12;;;;;;;1.40;1.30;;;5.10;99.90;;;;;;5078624;28;20216;-85
2023/01/06 05:59:39;;;;;;;1.50;1.40;;;5.20;99.90;;;;;;5072580;28;20922;-86
2023/01/06 06:02:06;;;;;;;2.60;1.60;;;5.20;99.90;;;;;;5078897;28;20200;-86
2023/01/06 06:04:34;;;;;;;1.90;1.70;;;5.10;99.90;;;;;;5077015;28;20212;-86
2023/01/06 06:07:01;;;;;;;1.70;1.50;;;5.10;99.90;;;;;;5077544;28;20684;-86
2023/01/06 06:09:28;;;;;;;1.93;1.60;;;5.00;99.90;;;;;;5077767;28;20209;-86
2023/01/06 06:11:55;;;;;;;2.73;1.33;;;5.00;99.90;;;;;;5083208;28;20201;-85
2023/01/06 06:14:23;;;;;;;4.07;1.40;;;5.00;99.90;;;;;;5075207;28;20208;-86
2023/01/06 06:16:50;;;;;;;2.77;1.60;;;4.90;99.90;;;;;;5074313;28;20207;-85
2023/01/06 06:19:17;;;;;;;1.33;1.23;;;4.90;99.90;;;;;;5078316;28;20225;-85
2023/01/06 06:21:45;;;;;;;2.47;1.33;;;4.90;99.90;;;;;;5079971;28;20207;-85
2023/01/06 06:24:12;;;;;;;3.43;1.27;;;4.80;99.90;;;;;;5079669;28;20236;-85
2023/01/06 06:26:39;;;;;;;8.03;3.10;;;4.90;99.90;;;;;;5073971;28;20798;-85
2023/01/06 06:29:07;;;;;;;2.00;1.50;;;4.80;99.90;;;;;;5075880;28;20205;-85
2023/01/06 06:31:34;;;;;;;1.60;1.50;;;4.80;99.90;;;;;;5070891;28;20209;-86
2023/01/06 06:34:02;;;;;;;1.50;1.40;;;4.80;99.90;;;;;;5082986;28;20205;-84
2023/01/06 06:36:30;;;;;;;1.93;1.60;;;4.70;99.90;;;;;;5077658;28;20704;-86
2023/01/06 06:38:58;;;;;;;1.20;1.10;;;4.70;99.90;;;;;;5070806;28;20236;-86
2023/01/06 06:41:26;;;;;;;1.70;1.60;;;4.70;99.90;;;;;;5075134;28;20193;-86
2023/01/06 06:43:53;;;;;;;1.50;1.40;;;4.70;99.90;;;;;;5074796;28;20669;-86
2023/01/06 06:46:21;;;;;;;1.80;1.40;;;4.70;99.90;;;;;;5078322;28;20233;-85
2023/01/06 06:48:48;;;;;;;1.50;1.40;;;4.70;99.90;;;;;;5074441;28;20208;-86
2023/01/06 06:51:16;;;;;;;3.47;1.40;;;4.70;99.90;;;;;;5076785;28;20288;-83
2023/01/06 06:53:43;;;;;;;2.10;1.33;;;4.60;99.90;;;;;;5078687;28;20216;-85
2023/01/06 06:56:13;;;;;;;1.47;1.27;;;4.70;99.90;;;;;;5076246;28;20197;-83
2023/01/06 06:58:40;;;;;;;2.83;1.47;;;4.70;99.90;;;;;;5073852;28;20914;-85
2023/01/06 07:01:08;;;;;;;1.50;1.40;;;4.70;99.90;;;;;;5072885;28;20193;-85
2023/01/06 07:03:35;;;;;;;1.67;1.40;;;4.60;99.90;;;;;;5079710;28;20212;-85
2023/01/06 07:06:03;;;;;;;2.80;1.20;;;4.60;99.90;;;;;;5077254;28;20200;-84
2023/01/06 07:08:31;;;;;;;1.47;1.37;;;4.60;99.90;;;;;;5078546;28;20674;-85
2023/01/06 07:10:58;;;;;;;1.80;1.40;;;4.50;99.90;;;;;;5079241;28;20580;-84
2023/01/06 07:13:27;;;;;;;1.20;1.10;;;4.60;99.90;;;;;;5071824;28;20554;-85
2023/01/06 07:15:54;;;;;;;1.50;1.40;;;4.50;99.90;;;;;;5073937;28;20263;-84
2023/01/06 07:18:21;;;;;;;1.57;1.20;;;4.50;99.90;;;;;;5078655;28;20205;-84
2023/01/06 07:20:51;;;;;;;1.40;1.30;;;4.50;99.90;;;;;;5077535;28;20290;-85
2023/01/06 07:23:18;;;;;;;1.40;1.30;;;4.50;99.90;;;;;;5083404;28;20303;-85
2023/01/06 07:25:45;;;;;;;1.43;1.33;;;4.50;99.90;;;;;;5082083;28;20326;-84
2023/01/06 07:28:12;;;;;;;1.73;1.40;;;4.50;99.90;;;;;;5075938;28;20198;-84
2023/01/06 07:30:40;;;;;;;1.67;1.57;;;4.50;99.90;;;;;;5072030;28;20232;-86
2023/01/06 07:33:07;;;;;;;2.07;1.53;;;4.40;99.90;;;;;;5079583;28;20224;-84
2023/01/06 07:35:33;;;;;;;2.33;1.40;;;4.50;99.90;;;;;;5079222;28;21445;-85
2023/01/06 07:38:04;;;;;;;1.47;1.37;;;4.50;99.90;;;;;;5082066;28;20645;-84
2023/01/06 07:40:31;;;;;;;1.70;1.60;;;4.50;99.90;;;;;;5084629;28;20324;-85
2023/01/06 07:42:59;;;;;;;1.60;1.47;;;4.50;99.90;;;;;;5081674;28;20433;-84
2023/01/06 07:45:26;;;;;;;1.73;1.63;;;4.50;99.90;;;;;;5080610;28;20209;-85
2023/01/06 07:47:56;;;;;;;1.30;1.20;;;4.60;99.90;;;;;;5087237;28;20687;-84
2023/01/06 07:50:23;;;;;;;1.60;1.47;;;4.60;99.90;;;;;;5088206;28;20205;-85
2023/01/06 07:52:50;;;;;;;1.93;1.80;;;4.70;99.90;;;;;;5079905;28;20631;-84
2023/01/06 07:55:17;;;;;;;2.50;1.80;;;4.80;99.90;;;;;;5082022;28;20232;-85
2023/01/06 07:57:43;;;;;;;1.40;1.30;;;4.80;99.90;;;;;;5082677;28;20228;-84
2023/01/06 08:00:11;;;;;;;2.00;1.43;;;4.90;99.90;;;;;;5080672;28;20230;-85
2023/01/06 08:02:38;;;;;;;1.83;1.73;;;5.00;99.90;;;;;;5077206;28;20656;-84
2023/01/06 08:05:07;;;;;;;2.10;1.90;;;5.20;99.90;;;;;;5081146;28;20204;-85
2023/01/06 08:07:34;;;;;;;2.00;1.80;;;5.30;99.90;;;;;;5080959;28;20205;-86
2023/01/06 08:10:01;;;;;;;2.03;1.80;;;5.30;99.90;;;;;;5082611;28;20215;-87
2023/01/06 08:12:28;;;;;;;3.17;2.77;;;5.30;99.90;;;;;;5086612;28;20207;-87
2023/01/06 08:14:55;;;;;;;4.00;2.43;;;5.40;99.90;;;;;;5074670;28;20665;-86
2023/01/06 08:17:22;;;;;;;3.67;2.22;;;5.50;99.90;;;;;;5077035;28;20211;-87
2023/01/06 08:19:49;;;;;;;3.50;2.30;;;5.40;99.90;;;;;;5080953;28;20653;-86
2023/01/06 08:22:17;;;;;;;2.40;2.20;;;5.50;99.90;;;;;;5082152;28;20204;-86
2023/01/06 08:24:44;;;;;;;2.27;2.07;;;5.40;99.90;;;;;;5083900;28;20208;-87
2023/01/06 08:27:11;;;;;;;3.03;2.30;;;5.40;99.90;;;;;;5087939;28;20334;-87
2023/01/06 08:29:38;;;;;;;2.13;1.92;;;5.50;99.90;;;;;;5083179;28;20204;-86
2023/01/06 08:32:05;;;;;;;2.00;1.80;;;5.70;99.90;;;;;;5080658;28;20208;-86
2023/01/06 08:34:32;;;;;;;4.47;2.87;;;5.90;99.90;;;;;;5077425;28;21100;-87
2023/01/06 08:36:59;;;;;;;2.47;2.20;;;6.10;99.90;;;;;;5079209;28;20654;-86
2023/01/06 08:39:28;;;;;;;2.20;2.00;;;6.20;99.90;;;;;;5076091;28;20225;-87
2023/01/06 08:41:55;;;;;;;3.65;2.33;;;6.30;99.90;;;;;;5076778;28;20197;-86
2023/01/06 08:44:21;;;;;;;3.17;2.60;;;6.40;99.90;;;;;;5079782;28;20617;-86
2023/01/06 08:46:48;;;;;;;4.00;2.80;;;6.50;99.90;;;;;;5076576;28;20634;-87
2023/01/06 08:49:15;;;;;;;3.15;2.85;;;6.70;99.90;;;;;;5077003;28;20201;-86
2023/01/06 08:51:42;;;;;;;2.95;2.67;;;6.90;99.90;;;;;;5074458;28;20205;-86
2023/01/06 08:54:09;;;;;;;2.80;2.55;;;7.10;99.90;;;;;;5074087;28;20766;-86
2023/01/06 08:56:42;;;;;;;4.05;3.00;;;7.50;99.90;;;;;;5073702;28;20604;-86
2023/01/06 08:59:15;;;;;;;3.78;3.35;;;7.80;99.70;;;;;;5076771;28;20304;-89
2023/01/06 09:01:42;;;;;;;4.45;2.97;;;8.50;98.50;;;;;;5080666;28;20201;-89
2023/01/06 09:04:10;;;;;;;2.20;2.00;;;9.40;96.60;;;;;;5079348;28;20661;-89
2023/01/06 09:06:38;;;;;;;2.40;2.20;;;10.40;93.00;;;;;;5074855;28;20209;-90
2023/01/06 09:09:07;;;;;;;2.10;1.90;;;11.30;87.40;;;;;;5077300;28;20205;-88
2023/01/06 09:11:33;;;;;;;2.67;2.20;;;11.60;79.90;;;;;;5075641;28;20201;-88
2023/01/06 09:14:02;;;;;;;1.90;1.80;;;11.40;86.10;;;;;;5074601;28;20292;-88
2023/01/06 09:16:29;;;;;;;1.65;1.55;;;11.30;86.10;;;;;;5076762;28;20565;-88
2023/01/06 09:18:56;;;;;;;1.80;1.70;;;12.00;83.90;;;;;;5081802;28;20204;-87
2023/01/06 09:21:24;;;;;;;1.90;1.70;;;13.10;73.70;;;;;;5074678;28;20220;-88
2023/01/06 09:23:51;;;;;;;2.65;1.60;;;13.90;56.90;;;;;;5080714;28;20225;-89
2023/01/06 09:26:20;;;;;;;1.63;1.50;;;14.60;49.00;;;;;;5086565;28;20204;-88
2023/01/06 09:28:48;;;;;;;1.45;1.30;;;14.80;39.70;;;;;;5085041;28;20216;-88
2023/01/06 09:31:17;;;;;;;1.85;1.63;;;14.90;41.00;;;;;;5080559;28;20201;-87
2023/01/06 09:33:44;;;;;;;1.40;1.30;;;15.20;40.00;;;;;;5079466;28;20568;-87
2023/01/06 09:36:11;;;;;;;1.50;1.40;;;15.90;35.10;;;;;;5079978;28;20609;-85
2023/01/06 09:38:38;;;;;;;1.77;1.67;;;16.60;30.90;;;;;;5076315;28;20299;-87
2023/01/06 09:41:30;;;;;;;1.50;1.40;;;16.80;28.70;;;;;;5080270;28;20227;-84
2023/01/06 09:44:04;;;;;;;1.50;1.40;;;16.30;29.00;;;;;;5079582;28;20208;-85
2023/01/06 09:46:36;;;;;;;1.85;1.40;;;16.30;29.00;;;;;;5075171;28;20206;-85
2023/01/06 09:49:09;;;;;;;1.92;1.83;;;16.40;25.80;;;;;;5076600;28;20565;-85
2023/01/06 09:51:37;;;;;;;2.80;1.70;;;16.80;25.20;;;;;;5075508;28;20212;-83
2023/01/06 09:54:14;;;;;;;1.52;1.42;;;16.80;25.00;;;;;;5073731;28;20239;-83
2023/01/06 09:56:43;;;;;;;1.63;1.48;;;16.20;27.80;;;;;;5076867;28;20208;-84
2023/01/06 09:59:32;;;;;;;1.63;1.52;;;16.30;27.40;;;;;;5077566;28;20210;-84
2023/01/06 10:02:02;;;;;;;1.30;1.20;;;16.40;26.20;;;;;;5081713;28;20517;-84
2023/01/06 10:04:33;;;;;;;2.13;1.33;;;15.80;28.50;;;;;;5074801;28;20698;-87
2023/01/06 10:07:12;;;;;;;2.13;1.50;;;15.60;27.10;;;;;;5069859;28;20221;-87
2023/01/06 10:09:47;;;;;;;1.70;1.60;;;15.00;27.90;;;;;;5071242;28;20209;-87
2023/01/06 10:12:26;;;;;;;1.65;1.20;;;14.80;28.90;;;;;;5074719;28;20200;-90
2023/01/06 10:15:07;;;;;;;1.40;1.30;;;14.30;31.40;;;;;;5075207;28;20280;-86
2023/01/06 10:18:04;;;;;;;1.30;1.20;;;13.70;32.30;;;;;;5078853;28;20197;-86
2023/01/06 10:20:56;;;;;;;1.35;1.25;;;13.60;33.50;;;;;;5070209;28;20232;-87
2023/01/06 10:23:42;;;;;;;1.70;1.60;;;13.20;36.00;;;;;;5075598;28;20236;-87
2023/01/06 10:26:13;;;;;;;1.23;0.98;;;12.80;43.20;;;;;;5074660;28;20200;-87
2023/01/06 10:28:43;;;;;;;1.30;1.20;;;12.80;42.00;;;;;;5076265;28;20208;-88
2023/01/06 10:31:14;;;;;;;1.23;1.13;;;12.70;46.60;;;;;;5076796;28;20664;-86
2023/01/06 10:33:47;;;;;;;1.20;1.10;;;12.60;49.10;;;;;;5082225;28;20205;-90
2023/01/06 10:36:16;;;;;;;1.17;1.08;;;12.60;49.20;;;;;;5078465;28;20201;-86
2023/01/06 10:38:46;;;;;;;1.50;1.40;;;12.40;51.40;;;;;;5074399;28;20236;-85
2023/01/06 10:41:21;;;;;;;1.30;1.20;;;12.60;51.80;;;;;;5073017;28;20223;-87
2023/01/06 10:43:48;;;;;;;1.42;1.33;;;12.80;56.40;;;;;;5076741;28;20276;-88
2023/01/06 10:46:16;;;;;;;1.40;1.30;;;12.80;52.70;;;;;;5077780;28;20216;-88
2023/01/06 10:48:46;;;;;;;1.50;1.40;;;13.00;50.10;;;;;;5077242;28;20197;-90
2023/01/06 10:51:35;;;;;;;1.55;1.45;;;13.20;49.70;;;;;;5076291;28;20209;-85
2023/01/06 10:54:05;;;;;;;1.35;1.27;;;13.30;49.90;;;;;;5071795;28;20200;-86
2023/01/06 10:56:35;;;;;;;1.25;1.10;;;13.40;49.90;;;;;;5078258;28;20338;-87
2023/01/06 10:59:07;;;;;;;1.35;1.20;;;13.50;51.10;;;;;;5075997;28;20201;-84
2023/01/06 11:01:36;;;;;;;1.27;1.17;;;13.30;49.80;;;;;;5080296;28;20228;-85
2023/01/06 11:04:11;;;;;;;1.25;1.15;;;13.40;50.80;;;;;;5073379;28;20626;-84
2023/01/06 11:06:43;;;;;;;1.50;1.40;;;13.30;52.30;;;;;;5080656;28;20212;-90
2023/01/06 11:09:28;;;;;;;1.20;1.15;;;13.40;49.90;;;;;;5080931;28;20204;-84
2023/01/06 11:11:56;;;;;;;1.52;1.42;;;13.30;52.10;;;;;;5081106;28;20201;-88
2023/01/06 11:14:28;;;;;;;1.38;1.27;;;13.40;51.30;;;;;;5085923;28;20200;-86
2023/01/06 11:16:58;;;;;;;1.17;1.17;;;13.20;53.50;;;;;;5085399;28;20208;-85
2023/01/06 11:19:37;;;;;;;2.05;1.80;;;12.90;57.60;;;;;;5088707;28;20200;-84
2023/01/06 11:22:05;;;;;;;2.10;1.30;;;12.60;64.30;;;;;;5089136;28;20219;-85
2023/01/06 11:24:33;;;;;;;1.40;1.30;;;12.30;71.40;;;;;;5083102;28;20235;-87
2023/01/06 11:27:02;;;;;;;1.77;1.40;;;12.10;75.20;;;;;;5082062;28;20212;-87
2023/01/06 11:29:32;;;;;;;2.10;1.30;;;12.00;77.70;;;;;;5095579;28;20197;-86
2023/01/06 11:32:03;;;;;;;1.55;1.45;;;11.90;78.60;;;;;;5084008;28;20224;-87
2023/01/06 11:34:33;;;;;;;1.40;1.30;;;11.70;81.90;;;;;;5081111;28;20205;-87
2023/01/06 11:37:00;;;;;;;1.50;1.40;;;11.60;82.40;;;;;;5078425;28;20204;-85
2023/01/06 11:39:30;;;;;;;1.80;1.50;;;11.60;82.50;;;;;;5083124;28;20201;-88
2023/01/06 11:42:04;;;;;;;1.77;1.48;;;11.60;83.30;;;;;;5083474;28;20216;-87
2023/01/06 11:44:33;;;;;;;1.40;1.30;;;11.50;82.90;;;;;;5080509;28;20231;-86
2023/01/06 11:47:05;;;;;;;2.20;2.00;;;11.40;84.40;;;;;;5076098;28;20201;-86
2023/01/06 11:49:36;;;;;;;2.42;1.70;;;11.40;85.00;;;;;;5074154;28;20201;-89
2023/01/06 11:52:06;;;;;;;1.88;1.77;;;11.40;84.50;;;;;;5083157;28;20238;-87
2023/01/06 11:54:38;;;;;;;2.17;1.83;;;11.40;85.40;;;;;;5083235;28;20220;-87
2023/01/06 11:57:27;;;;;;;1.95;1.80;;;11.40;85.40;;;;;;5085049;28;20214;-91
2023/01/06 12:00:38;;;;;;;3.80;1.98;;;11.30;86.10;;;;;;5077023;28;20218;-88
2023/01/06 12:09:24;;;;;;;2.00;1.90;;;11.30;87.00;;;;;;5077633;28;20700;-88
2023/01/06 12:11:59;;;;;;;2.03;1.90;;;11.30;87.40;;;;;;5073239;28;20208;-89
2023/01/06 12:14:30;;;;;;;2.33;2.13;;;11.30;87.70;;;;;;5077200;28;20203;-85
2023/01/06 12:17:06;;;;;;;2.20;2.00;;;11.20;88.00;;;;;;5080693;28;20272;-84
2023/01/06 12:19:39;;;;;;;2.85;2.08;;;11.30;88.10;;;;;;5083260;28;20657;-87
2023/01/06 12:22:54;;;;;;;2.30;2.10;;;11.30;87.60;;;;;;5075070;28;20549;-85
2023/01/06 12:25:26;;;;;;;2.38;2.08;;;11.30;86.60;;;;;;5082291;28;20200;-87
2023/01/06 12:27:58;;;;;;;2.28;1.70;;;11.40;86.00;;;;;;5078558;28;20193;-86
2023/01/06 12:30:31;;;;;;;1.95;1.75;;;11.40;85.00;;;;;;5085083;28;20201;-87
2023/01/06 12:33:03;;;;;;;1.67;1.58;;;11.50;85.00;;;;;;5088956;28;20205;-87
2023/01/06 12:35:33;;;;;;;3.15;1.88;;;11.50;85.90;;;;;;5082023;28;20208;-92
2023/01/06 12:38:10;;;;;;;2.45;1.90;;;11.40;85.80;;;;;;5087569;28;20286;-86
2023/01/06 12:43:31;;;;;;;2.30;2.10;;;11.50;85.10;;;;;;5067047;28;20204;-85
2023/01/06 12:46:05;;;;;;;2.63;2.42;;;11.40;86.20;;;;;;5080265;28;20208;-87
2023/01/06 12:48:38;;;;;;;2.85;2.55;;;11.30;86.40;;;;;;5079564;28;20205;-85
2023/01/06 12:51:10;;;;;;;2.53;2.33;;;11.30;87.90;;;;;;5074290;28;20215;-88
2023/01/06 12:53:44;;;;;;;3.72;1.98;;;11.20;87.80;;;;;;5081315;28;20201;-86
2023/01/06 12:56:35;;;;;;;2.67;2.28;;;11.30;87.30;;;;;;5081320;28;20212;-88
2023/01/06 12:59:12;;;;;;;2.58;2.38;;;11.30;87.50;;;;;;5077971;28;20228;-86
2023/01/06 13:01:45;;;;;;;2.58;2.35;;;11.40;88.90;;;;;;5080366;28;20224;-88
2023/01/06 13:04:48;;;;;;;2.25;2.05;;;11.50;86.00;;;;;;5080042;28;20204;-86
2023/01/06 13:07:23;;;;;;;2.28;2.08;;;11.50;86.80;;;;;;5081464;28;20204;-84
2023/01/06 13:10:01;;;;;;;2.40;2.20;;;11.50;86.00;;;;;;5076666;28;20218;-83
2023/01/06 13:13:03;;;;;;;1.98;1.88;;;11.40;86.70;;;;;;5086499;28;20204;-86
2023/01/06 13:15:32;;;;;;;2.20;2.00;;;11.30;87.80;;;;;;5016645;28;20217;-85
2023/01/06 13:18:11;;;;;;;4.32;1.83;;;11.20;86.90;;;;;;5063758;28;20212;-85
2023/01/06 13:20:42;;;;;;;1.67;1.58;;;11.10;87.60;;;;;;5081361;28;20248;-86
2023/01/06 13:26:40;;;;;;;2.15;1.60;;;10.90;88.30;;;;;;5083253;28;20241;-85
2023/01/06 13:29:20;;;;;;;2.05;1.80;;;10.80;87.70;;;;;;5084704;28;20668;-87
2023/01/06 13:32:37;;;;;;;2.13;1.60;;;10.70;90.20;;;;;;5073894;28;20205;-90
2023/01/06 13:35:31;;;;;;;1.67;1.58;;;10.70;90.40;;;;;;5074292;28;20208;-93